Time;durP1;ratioP1;P1;durP2;ratioP2;P2;SDS_P1;SDS_P2;PMS_P1;PMS_P2;Temp;Humidity;BMP_temperature;BMP_pressure;BME280_temperature;BME280_humidity;BME280_pressure;Samples;Min_cycle;Max_cycle;Signal;HPM_P1;HPM_P2
2023/07/03 00:00:05;;;;;;;6.45;0.77;;;;;;;16.53;100.00;100369.25;5035147;28;20114;-51
2023/07/03 00:02:32;;;;;;;12.60;1.40;;;;;;;16.57;100.00;100357.00;5039452;28;20044;-53
2023/07/03 00:04:57;;;;;;;15.70;1.70;;;;;;;16.50;100.00;100359.81;5033263;28;20498;-51
2023/07/03 00:07:22;;;;;;;9.93;1.83;;;;;;;16.40;100.00;100362.25;5039479;28;20119;-52
2023/07/03 00:09:48;;;;;;;6.45;1.02;;;;;;;16.39;100.00;100359.78;5032470;28;20025;-54
2023/07/03 00:12:13;;;;;;;5.80;2.40;;;;;;;16.30;100.00;100362.81;5040787;28;20033;-54
2023/07/03 00:14:39;;;;;;;8.40;2.83;;;;;;;16.39;100.00;100354.44;5030423;28;20298;-51
2023/07/03 00:17:07;;;;;;;14.25;0.95;;;;;;;16.39;100.00;100357.13;5034869;28;20056;-52
2023/07/03 00:19:32;;;;;;;8.43;0.65;;;;;;;16.19;100.00;100358.28;5034316;28;20666;-54
2023/07/03 00:22:00;;;;;;;8.93;1.33;;;;;;;15.98;100.00;100353.47;5030266;28;20033;-52
2023/07/03 00:24:28;;;;;;;10.88;1.48;;;;;;;16.21;100.00;100353.53;5030720;28;20112;-53
2023/07/03 00:26:54;;;;;;;6.35;1.10;;;;;;;16.18;100.00;100347.81;5029912;28;20477;-48
2023/07/03 00:29:19;;;;;;;9.75;0.88;;;;;;;16.31;100.00;100348.38;5031807;28;20112;-55
2023/07/03 00:31:45;;;;;;;4.57;1.95;;;;;;;16.40;100.00;100353.41;5034463;28;20182;-55
2023/07/03 00:34:10;;;;;;;5.20;1.25;;;;;;;16.27;100.00;100349.09;5032894;28;20068;-52
2023/07/03 00:36:35;;;;;;;3.03;1.00;;;;;;;16.04;100.00;100355.22;5040828;28;20115;-51
2023/07/03 00:39:00;;;;;;;6.82;0.88;;;;;;;15.66;100.00;100351.03;5040086;28;20039;-53
2023/07/03 00:41:26;;;;;;;6.50;1.95;;;;;;;15.75;100.00;100354.22;5040365;28;20086;-55
2023/07/03 00:43:52;;;;;;;4.55;1.23;;;;;;;15.31;100.00;100354.41;5035554;28;21464;-53
2023/07/03 00:46:17;;;;;;;1.85;0.45;;;;;;;15.61;100.00;100348.22;5039922;28;20045;-54
2023/07/03 00:48:43;;;;;;;3.22;1.00;;;;;;;15.65;100.00;100350.22;5031442;28;20037;-52
2023/07/03 00:51:10;;;;;;;2.63;0.88;;;;;;;15.60;100.00;100352.75;5041923;28;20498;-57
2023/07/03 00:53:36;;;;;;;4.72;1.17;;;;;;;15.59;100.00;100351.16;5037662;28;20482;-56
2023/07/03 00:56:03;;;;;;;12.00;1.08;;;;;;;15.59;100.00;100352.97;5038648;28;20122;-56
2023/07/03 00:58:28;;;;;;;6.57;1.13;;;;;;;15.59;100.00;100350.31;5037439;28;20035;-55
2023/07/03 01:00:58;;;;;;;7.07;0.82;;;;;;;15.57;100.00;100344.41;5035189;28;20036;-53
2023/07/03 01:03:40;;;;;;;12.05;2.30;;;;;;;15.48;100.00;100343.88;5038535;28;20068;-55
2023/07/03 01:06:08;;;;;;;;;;;;;;;15.73;100.00;100349.13;5035797;28;20032;-53
2023/07/03 01:08:34;;;;;;;6.32;1.83;;;;;;;15.76;100.00;100342.50;5034134;28;20365;-58
2023/07/03 01:10:59;;;;;;;6.28;1.00;;;;;;;15.75;100.00;100338.19;5033384;28;20084;-56
2023/07/03 01:13:28;;;;;;;5.18;0.65;;;;;;;15.75;100.00;100349.72;5044304;28;20154;-53
2023/07/03 01:15:54;;;;;;;9.20;1.55;;;;;;;15.82;100.00;100345.06;5036755;28;20080;-56
2023/07/03 01:18:20;;;;;;;6.07;1.25;;;;;;;15.81;100.00;100343.44;5028632;28;20037;-54
2023/07/03 01:20:58;;;;;;;8.52;0.85;;;;;;;15.72;100.00;100339.47;5030865;28;20478;-58
2023/07/03 01:23:30;;;;;;;4.55;0.90;;;;;;;15.74;100.00;100341.91;5033860;28;20068;-56
2023/07/03 01:25:57;;;;;;;9.38;1.00;;;;;;;15.62;100.00;100340.00;5040006;28;20028;-54
2023/07/03 01:28:24;;;;;;;6.18;1.23;;;;;;;15.57;100.00;100345.19;5037053;28;20035;-56
2023/07/03 01:30:52;;;;;;;8.85;1.80;;;;;;;15.41;100.00;100343.16;5040732;28;20025;-53
2023/07/03 01:33:25;;;;;;;10.50;2.38;;;;;;;15.39;100.00;100340.72;5034726;28;20074;-56
2023/07/03 01:35:53;;;;;;;5.53;1.15;;;;;;;15.36;100.00;100341.19;5028660;28;20271;-53
2023/07/03 01:38:20;;;;;;;6.82;1.27;;;;;;;15.31;100.00;100342.88;5032915;28;20064;-52
2023/07/03 01:40:46;;;;;;;6.47;1.02;;;;;;;15.22;100.00;100345.03;5037749;28;20036;-55
2023/07/03 01:43:12;;;;;;;14.40;1.55;;;;;;;15.11;100.00;100348.47;5036450;28;20059;-55
2023/07/03 01:45:43;;;;;;;3.08;0.45;;;;;;;15.07;100.00;100345.41;5030373;28;20038;-53
2023/07/03 01:48:09;;;;;;;8.90;0.93;;;;;;;15.19;100.00;100342.81;5027830;28;20045;-52
2023/07/03 01:50:36;;;;;;;3.03;0.68;;;;;;;15.16;100.00;100341.41;5026234;28;20328;-52
2023/07/03 01:53:07;;;;;;;4.00;1.33;;;;;;;15.07;100.00;100337.41;5039127;28;20052;-54
2023/07/03 01:55:43;;;;;;;7.68;2.10;;;;;;;14.85;100.00;100337.06;5028086;28;20039;-53
2023/07/03 01:58:08;;;;;;;6.55;0.55;;;;;;;14.37;100.00;100343.06;5032850;28;20127;-53
2023/07/03 02:01:03;;;;;;;18.67;2.67;;;;;;;14.75;100.00;100336.75;5032408;28;20039;-56
2023/07/03 02:03:43;;;;;;;5.78;0.75;;;;;;;14.89;100.00;100334.75;5033453;28;20186;-54
2023/07/03 02:06:20;;;;;;;12.98;1.00;;;;;;;14.82;100.00;100338.31;5028888;28;20043;-54
2023/07/03 02:08:48;;;;;;;8.73;1.13;;;;;;;14.77;100.00;100334.69;5036365;28;20064;-52
2023/07/03 02:11:18;;;;;;;5.38;1.95;;;;;;;14.73;100.00;100330.81;5034112;28;20029;-56
2023/07/03 02:13:44;;;;;;;5.78;0.82;;;;;;;14.78;100.00;100328.31;5031640;28;20040;-54
2023/07/03 02:16:09;;;;;;;7.00;1.52;;;;;;;14.76;100.00;100327.72;5035335;28;20033;-52
2023/07/03 02:18:35;;;;;;;6.38;1.42;;;;;;;14.76;100.00;100325.03;5033833;28;20552;-55
2023/07/03 02:21:00;;;;;;;9.57;0.80;;;;;;;14.74;100.00;100327.09;5035405;28;20481;-52
2023/07/03 02:23:26;;;;;;;6.65;0.88;;;;;;;14.76;100.00;100322.38;5032661;28;20108;-52
2023/07/03 02:25:51;;;;;;;6.22;2.13;;;;;;;14.78;100.00;100325.63;5052287;28;20032;-52
2023/07/03 02:28:18;;;;;;;4.47;1.33;;;;;;;14.70;100.00;100328.59;5031993;28;20086;-52
2023/07/03 02:30:43;;;;;;;11.88;2.58;;;;;;;14.65;100.00;100329.25;5034212;28;20051;-54
2023/07/03 02:33:09;;;;;;;7.28;0.93;;;;;;;14.53;100.00;100326.53;5033019;28;20037;-56
2023/07/03 02:35:35;;;;;;;9.65;1.98;;;;;;;14.39;100.00;100322.31;5032627;28;20110;-54
2023/07/03 02:38:01;;;;;;;3.60;0.75;;;;;;;14.35;100.00;100323.78;5035687;28;20166;-55
2023/07/03 02:40:26;;;;;;;8.05;1.10;;;;;;;14.44;100.00;100327.81;5034095;28;20041;-56
2023/07/03 02:42:51;;;;;;;7.90;0.93;;;;;;;14.47;100.00;100318.53;5033208;28;20029;-56
2023/07/03 02:45:19;;;;;;;11.52;1.73;;;;;;;14.51;100.00;100317.91;5030867;28;20482;-52
2023/07/03 02:47:44;;;;;;;10.80;2.15;;;;;;;14.55;100.00;100319.09;5031982;28;20045;-52
2023/07/03 02:50:10;;;;;;;4.97;0.52;;;;;;;14.48;100.00;100313.00;5033557;28;20232;-53
2023/07/03 02:52:36;;;;;;;4.45;1.10;;;;;;;14.36;100.00;100314.75;5031573;28;20025;-55
2023/07/03 02:55:01;;;;;;;12.23;1.88;;;;;;;14.31;100.00;100314.59;5031316;28;20025;-54
2023/07/03 02:57:28;;;;;;;3.60;1.52;;;;;;;14.34;100.00;100317.63;5029240;28;20082;-51
2023/07/03 02:59:53;;;;;;;2.85;1.52;;;;;;;14.38;100.00;100312.69;5028547;28;20044;-51
2023/07/03 03:02:19;;;;;;;5.57;1.33;;;;;;;14.36;100.00;100309.44;5030053;28;20448;-52
2023/07/03 03:04:45;;;;;;;3.83;0.85;;;;;;;14.26;100.00;100303.78;5032938;28;20397;-54
2023/07/03 03:07:11;;;;;;;3.63;1.38;;;;;;;14.24;100.00;100300.50;5031420;28;20095;-54
2023/07/03 03:09:36;;;;;;;5.95;0.88;;;;;;;14.21;100.00;100307.09;5030753;28;20033;-55
2023/07/03 03:12:02;;;;;;;5.68;2.67;;;;;;;14.06;100.00;100309.28;5033259;28;20034;-57
2023/07/03 03:14:27;;;;;;;8.70;1.13;;;;;;;14.02;100.00;100303.56;5031832;28;20503;-55
2023/07/03 03:16:53;;;;;;;8.63;1.27;;;;;;;13.95;100.00;100308.13;5031644;28;20475;-53
2023/07/03 03:19:18;;;;;;;4.85;1.35;;;;;;;13.86;100.00;100296.09;5031875;28;20029;-53
2023/07/03 03:21:44;;;;;;;5.30;1.85;;;;;;;13.85;100.00;100302.47;5035861;28;20056;-55
2023/07/03 03:24:09;;;;;;;4.10;1.95;;;;;;;13.83;100.00;100309.84;5037574;28;20033;-52
2023/07/03 03:26:35;;;;;;;7.32;1.25;;;;;;;13.86;100.00;100306.75;5036881;28;20114;-51
2023/07/03 03:29:00;;;;;;;10.90;0.75;;;;;;;13.82;100.00;100313.56;5035659;28;20033;-56
2023/07/03 03:31:26;;;;;;;4.57;0.80;;;;;;;13.77;100.00;100300.88;5028539;28;20029;-56
2023/07/03 03:33:51;;;;;;;5.13;0.57;;;;;;;13.71;100.00;100307.91;5032987;28;20025;-55
2023/07/03 03:36:16;;;;;;;4.18;0.35;;;;;;;13.74;100.00;100309.31;5039028;28;20493;-56
2023/07/03 03:38:42;;;;;;;6.38;2.58;;;;;;;13.80;100.00;100304.97;5038785;28;20029;-56
2023/07/03 03:41:08;;;;;;;9.98;1.13;;;;;;;13.68;100.00;100311.00;5035757;28;20045;-53
2023/07/03 03:43:34;;;;;;;6.00;1.63;;;;;;;13.55;100.00;100315.59;5034393;28;20094;-54
2023/07/03 03:46:00;;;;;;;5.78;1.17;;;;;;;13.53;100.00;100318.47;5038986;28;20028;-53
2023/07/03 03:48:27;;;;;;;5.28;0.43;;;;;;;13.56;100.00;100312.72;5040738;28;20020;-55
2023/07/03 03:50:53;;;;;;;6.18;0.90;;;;;;;13.58;100.00;100312.47;5028779;28;20064;-53
2023/07/03 03:53:19;;;;;;;5.97;1.25;;;;;;;13.50;100.00;100305.56;5040421;28;20128;-54
2023/07/03 03:55:49;;;;;;;2.50;0.47;;;;;;;13.48;100.00;100304.97;5036051;28;20036;-53
2023/07/03 03:58:15;;;;;;;4.82;0.57;;;;;;;13.57;100.00;100317.00;5032817;28;20500;-53
2023/07/03 04:00:41;;;;;;;7.00;0.65;;;;;;;13.67;100.00;100309.34;5034244;28;20094;-55
2023/07/03 04:03:06;;;;;;;4.90;1.02;;;;;;;13.64;100.00;100307.13;5039477;28;20490;-54
2023/07/03 04:05:32;;;;;;;5.25;0.45;;;;;;;13.61;100.00;100318.22;5033587;28;20087;-56
2023/07/03 04:07:57;;;;;;;3.22;0.50;;;;;;;13.49;100.00;100311.94;5053713;28;20063;-50
2023/07/03 04:10:22;;;;;;;7.60;0.63;;;;;;;13.43;100.00;100310.94;5033395;28;20029;-55
2023/07/03 04:12:48;;;;;;;5.80;0.93;;;;;;;13.28;100.00;100311.22;5032772;28;20122;-53
2023/07/03 04:15:13;;;;;;;5.22;1.77;;;;;;;13.30;100.00;100309.16;5034466;28;20374;-58
2023/07/03 04:17:38;;;;;;;7.25;0.40;;;;;;;13.33;100.00;100309.78;5030385;28;20033;-53
2023/07/03 04:20:10;;;;;;;3.78;0.93;;;;;;;13.35;100.00;100307.72;5033552;28;20037;-53
2023/07/03 04:22:35;;;;;;;5.50;0.47;;;;;;;13.40;100.00;100310.53;5032071;28;20056;-51
2023/07/03 04:25:01;;;;;;;3.47;0.60;;;;;;;13.39;100.00;100307.06;5027496;28;20034;-55
2023/07/03 04:27:26;;;;;;;6.55;0.52;;;;;;;13.58;100.00;100305.34;5035457;28;20410;-51
2023/07/03 04:29:51;;;;;;;6.50;0.47;;;;;;;13.80;100.00;100299.63;5039576;28;20171;-56
2023/07/03 04:32:17;;;;;;;3.38;0.30;;;;;;;13.90;100.00;100307.97;5034817;28;20056;-53
2023/07/03 04:34:42;;;;;;;11.18;3.72;;;;;;;13.96;100.00;100299.94;5026832;28;20057;-57
2023/07/03 04:37:08;;;;;;;6.93;0.88;;;;;;;14.02;100.00;100308.06;5035793;28;20060;-52
2023/07/03 04:39:33;;;;;;;5.55;1.88;;;;;;;14.05;100.00;100308.47;5034685;28;20397;-52
2023/07/03 04:42:00;;;;;;;7.00;2.42;;;;;;;14.14;100.00;100311.66;5039769;28;20029;-54
2023/07/03 04:44:28;;;;;;;5.32;0.43;;;;;;;14.16;100.00;100307.75;5029890;28;20025;-56
2023/07/03 04:46:55;;;;;;;2.70;0.68;;;;;;;14.15;100.00;100303.47;5029361;28;20099;-50
2023/07/03 04:49:26;;;;;;;2.10;0.38;;;;;;;14.10;100.00;100315.81;5034879;28;20039;-54
2023/07/03 04:51:52;;;;;;;10.13;1.43;;;;;;;14.17;100.00;100320.06;5033253;28;20127;-53
2023/07/03 04:54:18;;;;;;;2.13;1.05;;;;;;;14.18;100.00;100318.19;5028353;28;20343;-52
2023/07/03 04:56:44;;;;;;;10.10;1.42;;;;;;;14.23;100.00;100309.56;5030611;28;20039;-53
2023/07/03 04:59:10;;;;;;;11.13;2.38;;;;;;;14.21;100.00;100308.94;5044437;28;20032;-52
2023/07/03 05:01:35;;;;;;;4.80;0.43;;;;;;;14.31;100.00;100304.75;5036688;28;20391;-53
2023/07/03 05:04:01;;;;;;;6.55;0.43;;;;;;;14.33;100.00;100309.88;5033883;28;20597;-55
2023/07/03 05:06:26;;;;;;;5.47;2.13;;;;;;;14.41;100.00;100317.59;5030918;28;20043;-55
2023/07/03 05:08:51;;;;;;;9.73;1.50;;;;;;;14.44;100.00;100319.00;5037016;28;20056;-56
2023/07/03 05:11:17;;;;;;;2.72;1.35;;;;;;;14.45;100.00;100318.75;5033244;28;20575;-56
2023/07/03 05:13:42;;;;;;;5.85;0.77;;;;;;;14.40;100.00;100316.78;5037699;28;20458;-54
2023/07/03 05:16:08;;;;;;;4.60;0.85;;;;;;;14.52;100.00;100324.03;5031853;28;20128;-55
2023/07/03 05:18:33;;;;;;;6.90;0.80;;;;;;;14.63;100.00;100326.00;5040716;28;20102;-56
2023/07/03 05:20:58;;;;;;;6.50;1.13;;;;;;;14.67;100.00;100321.06;5037610;28;20033;-56
2023/07/03 05:23:24;;;;;;;11.07;0.88;;;;;;;14.70;100.00;100310.75;5032150;28;20502;-47
2023/07/03 05:25:49;;;;;;;2.55;0.32;;;;;;;13.75;100.00;100327.75;5030336;28;20812;-53
2023/07/03 05:28:14;;;;;;;3.15;0.40;;;;;;;13.87;100.00;100321.72;5029500;28;20471;-56
2023/07/03 05:30:40;;;;;;;1.48;0.17;;;;;;;14.58;100.00;100315.97;5036077;28;20029;-49
2023/07/03 05:33:05;;;;;;;2.67;1.02;;;;;;;14.87;100.00;100313.63;5035415;28;20032;-55
2023/07/03 05:35:31;;;;;;;2.88;0.82;;;;;;;14.99;100.00;100316.34;5030738;28;20067;-54
2023/07/03 05:37:59;;;;;;;3.70;1.75;;;;;;;15.19;100.00;100318.78;5029188;28;20486;-57
2023/07/03 05:40:24;;;;;;;3.15;0.57;;;;;;;15.27;100.00;100321.16;5041243;28;20036;-52
2023/07/03 05:42:50;;;;;;;0.80;0.30;;;;;;;15.29;100.00;100320.94;5034106;28;20029;-53
2023/07/03 05:45:15;;;;;;;10.35;1.00;;;;;;;15.32;100.00;100315.94;5032316;28;20044;-53
2023/07/03 05:47:40;;;;;;;5.57;1.38;;;;;;;15.38;100.00;100323.03;5026268;28;20394;-52
2023/07/03 05:50:06;;;;;;;3.10;0.65;;;;;;;15.26;100.00;100316.84;5031149;28;20032;-53
2023/07/03 05:52:33;;;;;;;6.15;0.52;;;;;;;15.45;100.00;100323.78;5031776;28;20029;-53
2023/07/03 05:54:59;;;;;;;3.38;0.30;;;;;;;15.49;100.00;100330.31;5032263;28;20029;-57
2023/07/03 05:57:24;;;;;;;3.88;0.55;;;;;;;15.57;100.00;100325.69;5030468;28;20025;-53
2023/07/03 05:59:50;;;;;;;6.53;0.50;;;;;;;15.64;100.00;100321.88;5030743;28;20382;-46
2023/07/03 06:02:16;;;;;;;7.85;1.50;;;;;;;15.55;100.00;100325.09;5031262;28;20482;-52
2023/07/03 06:04:41;;;;;;;2.65;0.28;;;;;;;15.74;100.00;100326.69;5027107;28;20079;-53
2023/07/03 06:07:08;;;;;;;2.50;0.25;;;;;;;15.73;100.00;100321.56;5029813;28;20061;-50
2023/07/03 06:09:34;;;;;;;4.63;0.57;;;;;;;15.78;100.00;100322.50;5030433;28;20129;-47
2023/07/03 06:12:00;;;;;;;2.83;1.20;;;;;;;15.80;100.00;100315.09;5031109;28;20028;-51
2023/07/03 06:14:25;;;;;;;3.42;0.90;;;;;;;15.82;100.00;100328.22;5033394;28;21610;-50
2023/07/03 06:16:52;;;;;;;5.60;0.82;;;;;;;15.82;100.00;100323.66;5038131;28;20366;-52
2023/07/03 06:19:19;;;;;;;4.47;0.73;;;;;;;15.84;100.00;100316.25;5033854;28;20037;-55
2023/07/03 06:21:44;;;;;;;5.07;1.60;;;;;;;15.94;100.00;100313.00;5030913;28;20679;-55
2023/07/03 06:24:11;;;;;;;3.72;0.75;;;;;;;15.99;100.00;100325.69;5035300;28;20039;-54
2023/07/03 06:26:39;;;;;;;8.23;1.20;;;;;;;16.08;100.00;100326.97;5031913;28;20108;-55
2023/07/03 06:29:06;;;;;;;1.83;0.75;;;;;;;16.22;100.00;100323.03;5031873;28;20556;-55
2023/07/03 06:31:32;;;;;;;5.43;0.77;;;;;;;16.18;100.00;100329.06;5031734;28;20043;-56
2023/07/03 06:33:57;;;;;;;3.10;0.22;;;;;;;16.36;100.00;100320.94;5031000;28;20465;-47
2023/07/03 06:36:23;;;;;;;2.05;0.35;;;;;;;16.24;100.00;100336.19;5028813;28;20111;-58
2023/07/03 06:38:57;;;;;;;10.07;0.43;;;;;;;16.38;100.00;100323.41;5032885;28;20051;-55
2023/07/03 06:41:24;;;;;;;1.77;0.15;;;;;;;16.41;100.00;100328.28;5034827;28;20040;-51
2023/07/03 06:43:50;;;;;;;4.63;1.20;;;;;;;16.50;100.00;100334.91;5036830;28;20024;-55
2023/07/03 06:46:16;;;;;;;8.20;1.88;;;;;;;16.34;100.00;100342.59;5030658;28;20044;-54
2023/07/03 06:48:42;;;;;;;3.97;1.95;;;;;;;16.49;100.00;100336.75;5049635;28;20501;-59
2023/07/03 06:51:10;;;;;;;5.72;0.22;;;;;;;16.63;100.00;100337.34;5031847;28;20108;-51
2023/07/03 06:53:36;;;;;;;6.72;1.13;;;;;;;16.84;100.00;100340.50;5032726;28;20111;-54
2023/07/03 06:56:03;;;;;;;4.25;0.73;;;;;;;16.80;100.00;100340.13;5030186;28;20029;-58
2023/07/03 06:58:29;;;;;;;4.30;0.00;;;;;;;16.92;100.00;100338.25;5038648;28;20138;-53
2023/07/03 07:00:55;;;;;;;3.40;0.20;;;;;;;17.09;100.00;100345.53;5042826;28;20052;-57
2023/07/03 07:03:20;;;;;;;1.50;0.17;;;;;;;17.16;100.00;100349.72;5037130;28;20034;-53
2023/07/03 07:05:46;;;;;;;0.80;0.00;;;;;;;17.21;100.00;100338.28;5031978;28;20036;-55
2023/07/03 07:08:16;;;;;;;3.30;0.10;;;;;;;17.53;100.00;100333.28;5037478;28;20029;-54
2023/07/03 07:10:43;;;;;;;1.20;0.13;;;;;;;17.87;100.00;100328.00;5029524;28;20446;-50
2023/07/03 07:13:09;;;;;;;5.18;0.95;;;;;;;17.75;100.00;100340.63;5036824;28;20117;-60
2023/07/03 07:15:38;;;;;;;7.95;1.15;;;;;;;17.85;100.00;100330.09;5031046;28;20505;-53
2023/07/03 07:18:06;;;;;;;3.03;0.20;;;;;;;17.92;100.00;100324.59;5031150;28;20048;-55
2023/07/03 07:20:38;;;;;;;4.03;0.57;;;;;;;17.88;100.00;100330.41;5029464;28;20548;-57
2023/07/03 07:23:04;;;;;;;5.63;0.50;;;;;;;17.78;100.00;100332.09;5036870;28;20037;-50
2023/07/03 07:25:30;;;;;;;1.13;0.20;;;;;;;17.95;100.00;100321.41;5038669;28;20351;-50
2023/07/03 07:27:55;;;;;;;4.88;0.60;;;;;;;18.09;100.00;100314.66;5029741;28;20574;-55
2023/07/03 07:30:21;;;;;;;0.28;0.10;;;;;;;18.03;100.00;100327.19;5033805;28;20065;-57
2023/07/03 07:32:47;;;;;;;1.00;0.57;;;;;;;17.93;100.00;100326.22;5028817;28;20470;-56
2023/07/03 07:35:14;;;;;;;7.03;1.02;;;;;;;18.03;100.00;100326.38;5018551;28;21443;-53
2023/07/03 07:37:39;;;;;;;2.17;0.50;;;;;;;18.20;100.00;100334.41;5034663;28;20033;-55
2023/07/03 07:40:06;;;;;;;8.02;0.75;;;;;;;18.33;100.00;100330.56;5033823;28;20406;-55
2023/07/03 07:42:31;;;;;;;3.88;0.15;;;;;;;18.38;100.00;100344.06;5033090;28;20033;-58
2023/07/03 07:44:57;;;;;;;1.20;0.20;;;;;;;18.59;100.00;100332.59;5037544;28;20098;-56
2023/07/03 07:47:22;;;;;;;3.25;0.30;;;;;;;18.66;100.00;100340.44;5030524;28;20524;-51
2023/07/03 07:49:47;;;;;;;1.30;0.45;;;;;;;18.92;100.00;100331.72;5036936;28;20159;-56
2023/07/03 07:52:15;;;;;;;4.40;0.52;;;;;;;18.72;100.00;100334.09;5038379;28;20137;-53
2023/07/03 07:54:41;;;;;;;3.85;0.32;;;;;;;18.92;100.00;100334.41;5036696;28;20029;-62
2023/07/03 07:57:06;;;;;;;7.32;0.30;;;;;;;19.16;99.63;100350.25;5040835;28;20409;-54
2023/07/03 07:59:34;;;;;;;4.70;0.30;;;;;;;19.29;96.75;100341.81;5031132;28;20087;-53
2023/07/03 08:01:59;;;;;;;6.03;0.32;;;;;;;19.64;97.09;100340.53;5035795;28;20064;-50
2023/07/03 08:04:25;;;;;;;5.75;0.10;;;;;;;19.79;87.54;100335.31;5033822;28;20447;-52
2023/07/03 08:06:50;;;;;;;3.30;0.10;;;;;;;19.82;88.22;100334.81;5034296;28;20025;-50
2023/07/03 08:09:15;;;;;;;0.85;0.03;;;;;;;19.86;85.59;100331.63;5032378;28;20041;-60
2023/07/03 08:11:43;;;;;;;0.55;0.00;;;;;;;20.03;87.73;100346.59;5030325;28;20045;-63
2023/07/03 08:14:08;;;;;;;2.15;0.45;;;;;;;19.88;78.45;100337.53;5038926;28;20033;-53
2023/07/03 08:16:34;;;;;;;1.73;0.00;;;;;;;19.81;78.24;100338.59;5034182;28;20762;-49
2023/07/03 08:18:59;;;;;;;3.50;0.45;;;;;;;19.87;82.31;100334.06;5038950;28;20060;-52
2023/07/03 08:21:24;;;;;;;3.88;0.20;;;;;;;19.73;76.56;100328.28;5034061;28;20032;-52
2023/07/03 08:23:50;;;;;;;1.15;0.30;;;;;;;19.61;81.58;100338.34;5045394;28;20163;-60
2023/07/03 08:26:19;;;;;;;5.15;2.15;;;;;;;19.82;83.27;100329.44;5029772;28;20102;-58
2023/07/03 08:28:44;;;;;;;1.65;0.15;;;;;;;19.30;80.84;100329.16;5038290;28;20029;-60
2023/07/03 08:31:09;;;;;;;0.60;0.20;;;;;;;19.43;82.50;100327.97;5036952;28;20113;-49
2023/07/03 08:33:35;;;;;;;3.30;0.35;;;;;;;19.89;79.17;100326.53;5039911;28;20072;-56
2023/07/03 08:36:00;;;;;;;3.20;0.13;;;;;;;20.14;80.10;100344.78;5034438;28;20030;-61
2023/07/03 08:38:25;;;;;;;1.00;0.25;;;;;;;19.83;78.90;100341.84;5037371;28;20058;-58
2023/07/03 08:40:59;;;;;;;4.53;0.65;;;;;;;20.14;77.84;100349.34;5033331;28;20041;-58
2023/07/03 08:43:30;;;;;;;2.40;0.00;;;;;;;19.89;76.62;100342.69;5028045;28;20462;-51
2023/07/03 08:45:56;;;;;;;2.80;0.13;;;;;;;19.65;78.21;100336.00;5034106;28;20069;-61
2023/07/03 08:48:25;;;;;;;3.83;0.20;;;;;;;19.99;79.35;100331.19;5033505;28;20047;-56
2023/07/03 08:50:55;;;;;;;1.55;0.35;;;;;;;20.38;79.60;100334.44;5032423;28;20033;-56
2023/07/03 08:53:27;;;;;;;5.07;0.40;;;;;;;20.45;77.01;100328.84;5033755;28;20082;-50
2023/07/03 08:55:57;;;;;;;1.60;0.08;;;;;;;20.21;78.42;100321.16;5032063;28;21378;-55
2023/07/03 08:58:25;;;;;;;3.92;0.70;;;;;;;20.56;78.40;100311.69;5040130;28;20136;-49
2023/07/03 09:01:20;;;;;;;4.13;1.10;;;;;;;21.19;77.12;100294.69;5030400;28;20045;-58
2023/07/03 09:03:45;;;;;;;1.83;0.10;;;;;;;21.56;78.72;100295.31;5034281;28;20032;-51
2023/07/03 09:06:18;;;;;;;2.50;0.32;;;;;;;21.57;71.30;100306.91;5032238;28;20037;-57
2023/07/03 09:09:14;;;;;;;1.23;0.10;;;;;;;20.99;73.71;100319.69;5036689;28;20470;-60
2023/07/03 09:11:45;;;;;;;4.18;0.50;;;;;;;21.26;76.79;100314.13;5023759;28;20127;-54
2023/07/03 09:14:20;;;;;;;4.13;0.22;;;;;;;21.54;76.00;100304.75;5030625;28;20034;-57
2023/07/03 09:16:46;;;;;;;2.38;0.25;;;;;;;22.06;75.15;100308.28;5034019;28;20032;-55
2023/07/03 09:19:24;;;;;;;5.35;0.25;;;;;;;22.10;72.98;100301.25;5032792;28;20080;-61
2023/07/03 09:21:54;;;;;;;4.50;0.32;;;;;;;22.03;75.90;100303.44;5032610;28;20534;-60
2023/07/03 09:24:25;;;;;;;1.25;0.93;;;;;;;21.86;75.24;100317.19;5031732;28;20535;-50
2023/07/03 09:27:15;;;;;;;1.38;0.10;;;;;;;21.28;74.16;100314.66;5031692;28;20040;-59
2023/07/03 09:29:41;;;;;;;4.72;0.30;;;;;;;21.06;76.90;100317.56;5023858;28;20044;-52
2023/07/03 09:32:06;;;;;;;4.15;0.70;;;;;;;21.17;77.75;100307.59;5030818;28;20470;-51
2023/07/03 09:34:58;;;;;;;1.95;0.63;;;;;;;21.42;77.03;100313.09;5029556;28;20108;-60
2023/07/03 09:37:24;;;;;;;3.28;0.47;;;;;;;21.34;77.42;100309.00;5032190;28;20134;-61
2023/07/03 09:39:51;;;;;;;2.88;0.25;;;;;;;21.28;78.36;100315.47;5028930;28;20437;-61
2023/07/03 09:42:16;;;;;;;2.10;0.40;;;;;;;21.08;78.34;100297.34;5035009;28;20540;-63
2023/07/03 09:44:42;;;;;;;3.88;0.63;;;;;;;20.92;79.16;100314.56;5032202;28;20033;-56
2023/07/03 09:47:22;;;;;;;4.43;0.60;;;;;;;20.83;79.67;100303.47;5035082;28;20460;-61
2023/07/03 09:49:47;;;;;;;1.95;0.38;;;;;;;20.91;80.14;100316.44;5036128;28;20455;-58
2023/07/03 09:52:14;;;;;;;3.17;0.90;;;;;;;20.94;80.27;100315.09;5029339;28;20166;-60
2023/07/03 09:54:43;;;;;;;3.67;0.98;;;;;;;21.18;80.57;100314.63;5035853;28;20029;-51
2023/07/03 09:57:27;;;;;;;4.60;1.05;;;;;;;21.00;80.24;100319.44;5029015;28;20029;-60
2023/07/03 09:59:53;;;;;;;4.07;0.40;;;;;;;20.54;81.09;100331.84;5034344;28;20352;-56
2023/07/03 10:02:22;;;;;;;3.22;0.22;;;;;;;20.57;82.42;100342.91;5032909;28;20037;-53
2023/07/03 10:04:48;;;;;;;5.15;0.70;;;;;;;20.27;84.75;100338.16;5035001;28;20033;-58
2023/07/03 10:07:16;;;;;;;4.60;0.47;;;;;;;19.82;86.88;100348.25;5037358;28;20040;-60
2023/07/03 10:09:43;;;;;;;3.30;1.13;;;;;;;20.20;86.53;100342.94;5034715;28;20441;-52
2023/07/03 10:12:34;;;;;;;5.65;1.27;;;;;;;20.37;86.83;100337.41;5034668;28;20044;-57
2023/07/03 10:15:07;;;;;;;2.33;0.35;;;;;;;20.35;86.70;100339.53;5029499;28;20044;-52
2023/07/03 10:17:50;;;;;;;3.45;0.63;;;;;;;20.51;86.74;100335.88;5035692;28;20056;-58
2023/07/03 10:20:32;;;;;;;4.15;0.20;;;;;;;20.43;88.02;100342.53;5032348;28;20676;-55
2023/07/03 10:23:02;;;;;;;4.70;1.50;;;;;;;20.07;94.01;100360.31;5034404;28;20063;-54
2023/07/03 10:25:32;;;;;;;4.05;0.40;;;;;;;19.78;100.00;100360.63;5033412;28;20490;-58
2023/07/03 10:28:06;;;;;;;4.15;1.00;;;;;;;19.46;100.00;100360.53;5031403;28;20065;-58
2023/07/03 10:30:34;;;;;;;2.60;0.40;;;;;;;19.44;100.00;100351.09;5031566;28;20047;-53
2023/07/03 10:33:03;;;;;;;2.95;0.40;;;;;;;19.80;100.00;100353.09;5033221;28;20029;-61
2023/07/03 10:35:32;;;;;;;6.53;1.20;;;;;;;20.10;100.00;100349.03;5039103;28;20040;-61
2023/07/03 10:38:10;;;;;;;2.75;0.70;;;;;;;20.01;100.00;100337.16;5034289;28;20041;-62
2023/07/03 10:40:51;;;;;;;4.00;0.22;;;;;;;19.92;100.00;100335.97;5032158;28;20112;-61
2023/07/03 10:43:19;;;;;;;5.60;1.35;;;;;;;20.52;100.00;100334.78;5026454;28;20441;-55
2023/07/03 10:45:47;;;;;;;4.22;1.30;;;;;;;20.86;100.00;100296.75;5030779;28;20033;-60
2023/07/03 10:48:18;;;;;;;4.55;0.40;;;;;;;20.95;100.00;100294.34;5030900;28;20041;-51
2023/07/03 10:50:50;;;;;;;4.05;0.10;;;;;;;21.24;100.00;100303.59;5033558;28;20043;-54
2023/07/03 10:53:27;;;;;;;6.38;0.60;;;;;;;21.54;100.00;100293.97;5035761;28;20314;-48
2023/07/03 10:56:05;;;;;;;4.85;0.85;;;;;;;21.31;100.00;100287.97;5033908;28;20029;-58
2023/07/03 10:58:43;;;;;;;5.22;0.98;;;;;;;21.19;100.00;100281.19;5036564;28;20506;-57
2023/07/03 11:01:23;;;;;;;3.17;0.30;;;;;;;21.40;100.00;100280.22;5034743;28;20083;-53
2023/07/03 11:04:07;;;;;;;2.85;0.30;;;;;;;21.76;100.00;100267.56;5031780;28;20490;-49
2023/07/03 11:07:09;;;;;;;7.28;1.15;;;;;;;21.82;100.00;100265.66;5033050;28;20330;-57
2023/07/03 11:09:52;;;;;;;1.80;0.40;;;;;;;22.66;95.76;100257.91;5038580;28;20134;-52
2023/07/03 11:12:47;;;;;;;7.32;1.98;;;;;;;23.67;95.79;100250.28;5032104;28;20029;-53
2023/07/03 11:15:37;;;;;;;1.67;0.35;;;;;;;24.33;87.26;100235.28;5028362;28;20108;-53
2023/07/03 11:18:38;;;;;;;1.42;0.43;;;;;;;24.76;85.00;100234.53;5035426;28;20040;-52
2023/07/03 11:21:25;;;;;;;4.35;0.93;;;;;;;24.30;84.08;100245.91;5037382;28;20143;-61
2023/07/03 11:23:59;;;;;;;4.95;1.08;;;;;;;24.01;83.93;100246.75;5037756;28;20619;-52